createdAt,value
2017-03-28T00:00:47.174Z,9.49
2017-03-28T00:01:47.207Z,9.48
2017-03-28T00:02:47.242Z,9.27
2017-03-28T00:03:47.583Z,9.46
2017-03-28T00:04:47.626Z,9.38
2017-03-28T00:05:47.351Z,9.32
2017-03-28T00:06:47.683Z,9.4
2017-03-28T00:07:47.726Z,9.39
2017-03-28T00:08:47.762Z,9.34
2017-03-28T00:09:47.503Z,9.32
2017-03-28T00:10:47.524Z,9.3
2017-03-28T00:11:47.568Z,9.3
2017-03-28T00:12:48.206Z,9.31
2017-03-28T00:13:47.633Z,9.3
2017-03-28T00:14:47.672Z,9.23
2017-03-28T00:15:47.710Z,9.21
2017-03-28T00:16:47.749Z,9.23
2017-03-28T00:17:47.776Z,9.21
2017-03-28T00:18:48.113Z,9.21
2017-03-28T00:19:47.844Z,9.24
2017-03-28T00:20:47.876Z,9.27
2017-03-28T00:21:47.915Z,9.15
2017-03-28T00:22:47.954Z,9.12
2017-03-28T00:23:48.033Z,9.13
2017-03-28T00:24:48.017Z,9.15
2017-03-28T00:25:48.391Z,9.09
2017-03-28T00:26:48.315Z,9.15
2017-03-28T00:27:48.433Z,9.06
2017-03-28T00:28:48.464Z,9.09
2017-03-28T00:29:48.195Z,8.99
2017-03-28T00:30:48.227Z,9.02
2017-03-28T00:31:48.571Z,9.04
2017-03-28T00:32:48.304Z,9.05
2017-03-28T00:33:48.663Z,9.05
2017-03-28T00:34:48.376Z,9.05
2017-03-28T00:35:48.408Z,9.05
2017-03-28T00:36:48.449Z,9.04
2017-03-28T00:37:48.481Z,9.1
2017-03-28T00:38:48.819Z,9.05
2017-03-28T00:39:48.550Z,9.04
2017-03-28T00:40:48.580Z,9.05
2017-03-28T00:41:48.620Z,9.1
2017-03-28T00:42:48.962Z,8.97
2017-03-28T00:43:49.000Z,8.97
2017-03-28T00:44:48.732Z,8.97
2017-03-28T00:45:48.757Z,8.97
2017-03-28T00:46:49.095Z,9.01
2017-03-28T00:47:48.841Z,8.97
2017-03-28T00:48:49.173Z,8.97
2017-03-28T00:49:48.900Z,8.97
2017-03-28T00:50:48.934Z,9.01
2017-03-28T00:51:48.968Z,9.01
2017-03-28T00:52:49.613Z,9.05
2017-03-28T00:53:49.346Z,8.99
2017-03-28T00:54:49.076Z,8.94
2017-03-28T00:55:49.110Z,8.93
2017-03-28T00:56:49.451Z,8.94
2017-03-28T00:57:49.485Z,8.96
2017-03-28T00:58:49.222Z,8.99
2017-03-28T00:59:49.552Z,9.04
2017-03-28T01:00:49.289Z,8.96
2017-03-28T01:01:49.629Z,8.94
2017-03-28T01:02:49.667Z,8.86
2017-03-28T01:03:49.696Z,8.87
2017-03-28T01:04:49.732Z,8.86
2017-03-28T01:05:49.459Z,8.86
2017-03-28T01:06:49.498Z,8.87
2017-03-28T01:07:49.533Z,8.84
2017-03-28T01:08:49.570Z,8.91
2017-03-28T01:09:49.599Z,8.88
2017-03-28T01:10:49.643Z,8.91
2017-03-28T01:11:49.670Z,8.84
2017-03-28T01:12:50.010Z,8.87
2017-03-28T01:13:49.743Z,8.88
2017-03-28T01:14:49.779Z,8.88
2017-03-28T01:15:49.816Z,8.79
2017-03-28T01:16:49.852Z,8.81
2017-03-28T01:17:50.506Z,8.81
2017-03-28T01:18:49.920Z,8.86
2017-03-28T01:19:50.260Z,8.76
2017-03-28T01:20:50.291Z,8.84
2017-03-28T01:21:50.028Z,8.79
2017-03-28T01:22:50.064Z,8.75
2017-03-28T01:23:50.400Z,8.83
2017-03-28T01:24:50.129Z,8.83
2017-03-28T01:25:50.472Z,8.75
2017-03-28T01:26:50.499Z,8.78
2017-03-28T01:27:50.840Z,8.73
2017-03-28T01:28:50.271Z,8.73
2017-03-28T01:29:50.314Z,8.76
2017-03-28T01:30:50.341Z,8.72
2017-03-28T01:31:50.375Z,8.78
2017-03-28T01:32:50.713Z,8.78
2017-03-28T01:33:50.455Z,8.72
2017-03-28T01:34:50.483Z,8.76
2017-03-28T01:35:50.513Z,8.75
2017-03-28T01:36:50.546Z,8.86
2017-03-28T01:37:50.893Z,8.78
2017-03-28T01:38:50.620Z,8.83
2017-03-28T01:39:50.958Z,8.78
2017-03-28T01:40:50.686Z,8.81
2017-03-28T01:41:50.723Z,8.83
2017-03-28T01:42:51.069Z,8.78
2017-03-28T01:43:51.097Z,8.83
2017-03-28T01:44:50.836Z,8.81
2017-03-28T01:45:50.863Z,8.81
2017-03-28T01:46:51.200Z,8.75
2017-03-28T01:47:51.238Z,8.84
2017-03-28T01:48:51.575Z,8.83
2017-03-28T01:49:51.303Z,8.81
2017-03-28T01:50:51.040Z,8.73
2017-03-28T01:51:51.068Z,8.71
2017-03-28T01:52:51.413Z,8.69
2017-03-28T01:53:51.145Z,8.76
2017-03-28T01:54:51.481Z,8.69
2017-03-28T01:55:51.211Z,8.71
2017-03-28T01:56:51.245Z,8.75
2017-03-28T01:57:51.890Z,8.73
2017-03-28T01:58:51.320Z,8.69
2017-03-28T01:59:51.655Z,8.63
2017-03-28T02:00:51.690Z,8.58
2017-03-28T02:01:51.727Z,8.63
2017-03-28T02:02:51.457Z,8.62
2017-03-28T02:03:51.840Z,8.63
2017-03-28T02:04:51.830Z,8.65
2017-03-28T02:05:51.861Z,8.62
2017-03-28T02:06:51.612Z,8.54
2017-03-28T02:07:52.239Z,8.51
2017-03-28T02:08:51.968Z,8.53
2017-03-28T02:09:52.001Z,8.44
2017-03-28T02:10:51.731Z,8.51
2017-03-28T02:11:51.773Z,8.4
2017-03-28T02:12:51.805Z,8.42
2017-03-28T02:13:52.144Z,8.44
2017-03-28T02:14:51.873Z,8.39
2017-03-28T02:15:52.241Z,8.42
2017-03-28T02:16:52.247Z,8.4
2017-03-28T02:17:52.280Z,8.42
2017-03-28T02:18:52.617Z,8.37
2017-03-28T02:19:52.059Z,8.47
2017-03-28T02:20:52.083Z,8.39
2017-03-28T02:21:52.121Z,8.36
2017-03-28T02:22:52.152Z,8.44
2017-03-28T02:23:52.496Z,8.42
2017-03-28T02:24:52.223Z,8.39
2017-03-28T02:25:52.252Z,8.42
2017-03-28T02:26:52.286Z,8.39
2017-03-28T02:27:52.327Z,8.39
2017-03-28T02:28:52.662Z,8.4
2017-03-28T02:29:52.702Z,8.32
2017-03-28T02:30:52.441Z,8.4
2017-03-28T02:31:52.468Z,8.39
2017-03-28T02:32:53.101Z,8.26
2017-03-28T02:33:52.539Z,8.33
2017-03-28T02:34:52.572Z,8.32
2017-03-28T02:35:52.901Z,8.33
2017-03-28T02:36:52.632Z,8.35
2017-03-28T02:37:52.973Z,8.21
2017-03-28T02:38:52.711Z,8.32
2017-03-28T02:39:53.040Z,8.22
2017-03-28T02:40:53.080Z,8.18
2017-03-28T02:41:52.812Z,8.28
2017-03-28T02:42:53.147Z,8.17
2017-03-28T02:43:53.229Z,8.14
2017-03-28T02:44:52.912Z,8.18
2017-03-28T02:45:52.948Z,8.18
2017-03-28T02:46:52.982Z,8.15
2017-03-28T02:47:53.013Z,8.21
2017-03-28T02:48:53.056Z,8.18
2017-03-28T02:49:53.091Z,8.21
2017-03-28T02:50:53.119Z,8.17
2017-03-28T02:51:53.457Z,8.18
2017-03-28T02:52:53.198Z,8.12
2017-03-28T02:53:53.531Z,8.18
2017-03-28T02:54:53.561Z,8.15
2017-03-28T02:55:53.293Z,8.02
2017-03-28T02:56:53.331Z,8.17
2017-03-28T02:57:53.666Z,8.03
2017-03-28T02:58:53.399Z,8.03
2017-03-28T02:59:53.427Z,8.04
2017-03-28T03:00:53.766Z,8.1
2017-03-28T03:01:53.500Z,8.03
2017-03-28T03:02:53.539Z,8.08
2017-03-28T03:03:53.567Z,8.07
2017-03-28T03:04:53.601Z,8.08
2017-03-28T03:05:53.636Z,7.99
2017-03-28T03:06:53.997Z,8.07
2017-03-28T03:07:53.709Z,8.02
2017-03-28T03:08:54.047Z,8.12
2017-03-28T03:09:53.775Z,8.02
2017-03-28T03:10:53.809Z,7.92
2017-03-28T03:11:53.844Z,7.94
2017-03-28T03:12:54.181Z,7.94
2017-03-28T03:13:53.917Z,8.03
2017-03-28T03:14:54.252Z,7.97
2017-03-28T03:15:54.284Z,7.97
2017-03-28T03:16:54.016Z,7.96
2017-03-28T03:17:54.054Z,7.97
2017-03-28T03:18:54.388Z,7.94
2017-03-28T03:19:54.423Z,7.84
2017-03-28T03:20:54.151Z,7.9
2017-03-28T03:21:54.186Z,8
2017-03-28T03:22:54.528Z,7.93
2017-03-28T03:23:54.251Z,7.94
2017-03-28T03:24:54.591Z,7.84
2017-03-28T03:25:54.323Z,8
2017-03-28T03:26:54.354Z,7.89
2017-03-28T03:27:54.699Z,7.85
2017-03-28T03:28:54.730Z,7.92
2017-03-28T03:29:54.759Z,7.92
2017-03-28T03:30:54.793Z,7.74
2017-03-28T03:31:54.526Z,7.81
2017-03-28T03:32:54.571Z,7.87
2017-03-28T03:33:54.596Z,7.81
2017-03-28T03:34:54.934Z,7.79
2017-03-28T03:35:54.963Z,7.78
2017-03-28T03:36:54.698Z,7.81
2017-03-28T03:37:55.040Z,7.66
2017-03-28T03:38:54.765Z,7.75
2017-03-28T03:39:54.802Z,7.67
2017-03-28T03:40:54.833Z,7.77
2017-03-28T03:41:55.168Z,7.74
2017-03-28T03:42:54.905Z,7.69
2017-03-28T03:43:54.965Z,7.66
2017-03-28T03:44:55.272Z,7.59
2017-03-28T03:45:55.308Z,7.58
2017-03-28T03:46:55.040Z,7.59
2017-03-28T03:47:55.376Z,7.66
2017-03-28T03:48:55.115Z,7.53
2017-03-28T03:49:55.145Z,7.59
2017-03-28T03:50:55.480Z,7.59
2017-03-28T03:51:55.206Z,7.55
2017-03-28T03:52:55.245Z,7.59
2017-03-28T03:53:55.281Z,7.49
2017-03-28T03:54:55.613Z,7.52
2017-03-28T03:55:55.647Z,7.47
2017-03-28T03:56:55.380Z,7.5
2017-03-28T03:57:55.716Z,7.45
2017-03-28T03:58:55.447Z,7.47
2017-03-28T03:59:55.478Z,7.47
2017-03-28T04:00:55.519Z,7.4
2017-03-28T04:01:55.549Z,7.47
2017-03-28T04:02:55.884Z,7.44
2017-03-28T04:03:55.619Z,7.4
2017-03-28T04:04:55.662Z,7.42
2017-03-28T04:05:55.684Z,7.4
2017-03-28T04:06:55.718Z,7.44
2017-03-28T04:07:56.053Z,7.52
2017-03-28T04:08:56.095Z,7.42
2017-03-28T04:09:55.827Z,7.38
2017-03-28T04:10:55.852Z,7.42
2017-03-28T04:11:55.887Z,7.44
2017-03-28T04:12:55.921Z,7.45
2017-03-28T04:13:56.258Z,7.41
2017-03-28T04:14:56.292Z,7.41
2017-03-28T04:15:56.024Z,7.42
2017-03-28T04:16:56.061Z,7.4
2017-03-28T04:17:56.405Z,7.4
2017-03-28T04:18:56.140Z,7.34
2017-03-28T04:19:56.467Z,7.42
2017-03-28T04:20:56.204Z,7.37
2017-03-28T04:21:56.228Z,7.4
2017-03-28T04:22:56.270Z,7.4
2017-03-28T04:23:56.303Z,7.4
2017-03-28T04:24:56.877Z,7.38
2017-03-28T04:25:56.670Z,7.34
2017-03-28T04:26:56.694Z,7.37
2017-03-28T04:27:57.035Z,7.41
2017-03-28T04:28:56.770Z,7.41
2017-03-28T04:29:57.101Z,7.35
2017-03-28T04:30:56.532Z,7.41
2017-03-28T04:31:56.573Z,7.38
2017-03-28T04:32:56.906Z,7.45
2017-03-28T04:33:56.636Z,7.37
2017-03-28T04:34:56.672Z,7.35
2017-03-28T04:35:57.006Z,7.37
2017-03-28T04:36:56.739Z,7.37
2017-03-28T04:37:56.772Z,7.37
2017-03-28T04:38:57.111Z,7.41
2017-03-28T04:39:57.144Z,7.37
2017-03-28T04:40:56.867Z,7.41
2017-03-28T04:41:57.210Z,7.38
2017-03-28T04:42:56.946Z,7.34
2017-03-28T04:43:57.585Z,7.32
2017-03-28T04:44:57.009Z,7.32
2017-03-28T04:45:57.039Z,7.4
2017-03-28T04:46:57.077Z,7.38
2017-03-28T04:47:57.416Z,7.34
2017-03-28T04:48:57.149Z,7.38
2017-03-28T04:49:57.783Z,7.26
2017-03-28T04:50:57.210Z,7.38
2017-03-28T04:51:57.248Z,7.29
2017-03-28T04:52:57.282Z,7.29
2017-03-28T04:53:57.314Z,7.31
2017-03-28T04:54:57.648Z,7.29
2017-03-28T04:55:57.381Z,7.31
2017-03-28T04:56:57.418Z,7.26
2017-03-28T04:57:57.450Z,7.27
2017-03-28T04:58:57.793Z,7.27
2017-03-28T04:59:57.529Z,7.32
2017-03-28T05:00:57.853Z,7.31
2017-03-28T05:01:57.582Z,7.29
2017-03-28T05:02:57.940Z,7.34
2017-03-28T05:03:58.254Z,7.24
2017-03-28T05:04:57.988Z,7.35
2017-03-28T05:05:57.718Z,7.4
2017-03-28T05:06:58.353Z,7.44
2017-03-28T05:07:58.087Z,7.42
2017-03-28T05:08:58.131Z,7.38
2017-03-28T05:09:58.158Z,7.38
2017-03-28T05:10:58.192Z,7.37
2017-03-28T05:11:57.933Z,7.38
2017-03-28T05:12:58.258Z,7.31
2017-03-28T05:13:58.597Z,7.38
2017-03-28T05:14:58.340Z,7.41
2017-03-28T05:15:58.112Z,7.38
2017-03-28T05:16:58.095Z,7.41
2017-03-28T05:17:58.736Z,7.44
2017-03-28T05:18:58.196Z,7.38
2017-03-28T05:19:58.803Z,7.38
2017-03-28T05:20:58.227Z,7.37
2017-03-28T05:21:58.265Z,7.4
2017-03-28T05:22:58.298Z,7.42
2017-03-28T05:23:58.331Z,7.4
2017-03-28T05:24:58.666Z,7.4
2017-03-28T05:25:58.416Z,7.38
2017-03-28T05:26:58.742Z,7.41
2017-03-28T05:27:58.772Z,7.42
2017-03-28T05:28:58.804Z,7.44
2017-03-28T05:29:58.933Z,7.47
2017-03-28T05:30:58.572Z,7.42
2017-03-28T05:31:58.599Z,7.44
2017-03-28T05:32:59.244Z,7.47
2017-03-28T05:33:58.974Z,7.47
2017-03-28T05:34:59.012Z,7.47
2017-03-28T05:35:59.038Z,7.44
2017-03-28T05:37:02.906Z,7.58
2017-03-28T05:37:59.190Z,7.52
2017-03-28T05:38:59.145Z,7.53
2017-03-28T05:39:59.177Z,7.49
2017-03-28T05:40:58.908Z,7.53
2017-03-28T05:41:58.941Z,7.58
2017-03-28T05:42:59.288Z,7.63
2017-03-28T05:43:59.345Z,7.6
2017-03-28T05:44:59.354Z,7.59
2017-03-28T05:45:59.377Z,7.66
2017-03-28T05:46:59.423Z,7.59
2017-03-28T05:47:59.449Z,7.69
2017-03-28T05:48:59.182Z,7.72
2017-03-28T05:49:59.212Z,7.78
2017-03-28T05:50:59.561Z,7.77
2017-03-28T05:51:59.582Z,7.78
2017-03-28T05:52:59.320Z,7.85
2017-03-28T05:53:59.957Z,7.82
2017-03-28T05:54:59.687Z,7.85
2017-03-28T05:55:59.717Z,7.82
2017-03-28T05:56:59.450Z,8.1
2017-03-28T05:57:59.491Z,8.45
2017-03-28T05:58:59.522Z,9.2
2017-03-28T05:59:59.558Z,10.15
2017-03-28T06:00:59.589Z,11.28
2017-03-28T06:01:59.942Z,12.26
2017-03-28T06:02:59.666Z,13.25
2017-03-28T06:03:59.701Z,14.12
2017-03-28T06:05:00.045Z,14.94
2017-03-28T06:05:59.772Z,15.76
2017-03-28T06:07:00.121Z,16.48
2017-03-28T06:08:00.159Z,17.11
2017-03-28T06:09:00.191Z,17.81
2017-03-28T06:10:00.254Z,18.42
2017-03-28T06:11:00.263Z,18.87
2017-03-28T06:12:00.003Z,19.31
2017-03-28T06:13:00.381Z,19.79
2017-03-28T06:14:00.388Z,20.41
2017-03-28T06:15:00.125Z,20.86
2017-03-28T06:16:00.161Z,21.13
2017-03-28T06:17:00.201Z,21.57
2017-03-28T06:18:00.555Z,21.97
2017-03-28T06:19:00.590Z,22.29
2017-03-28T06:20:00.630Z,22.62
2017-03-28T06:21:00.369Z,22.86
2017-03-28T06:22:00.410Z,23.26
2017-03-28T06:23:00.777Z,23.47
2017-03-28T06:24:00.796Z,23.72
2017-03-28T06:25:00.841Z,24.08
2017-03-28T06:26:00.882Z,24.24
2017-03-28T06:27:00.732Z,24.54
2017-03-28T06:28:01.271Z,24.75
2017-03-28T06:29:01.006Z,25.05
2017-03-28T06:30:01.052Z,25.25
2017-03-28T06:31:01.089Z,25.35
2017-03-28T06:32:00.833Z,25.53
2017-03-28T06:33:01.183Z,25.72
2017-03-28T06:34:01.254Z,25.79
2017-03-28T06:35:01.584Z,25.9
2017-03-28T06:36:01.010Z,26.02
2017-03-28T06:37:01.052Z,26.21
2017-03-28T06:38:01.699Z,26.49
2017-03-28T06:39:01.152Z,26.74
2017-03-28T06:40:01.783Z,26.89
2017-03-28T06:41:01.232Z,27.09
2017-03-28T06:42:01.881Z,27.28
2017-03-28T06:43:01.764Z,27.48
2017-03-28T06:44:01.667Z,27.66
2017-03-28T06:45:01.706Z,27.96
2017-03-28T06:46:01.451Z,28.06
2017-03-28T06:47:01.508Z,28.46
2017-03-28T06:48:01.850Z,28.56
2017-03-28T06:49:01.589Z,28.75
2017-03-28T06:50:01.630Z,29
2017-03-28T06:51:01.679Z,29.23
2017-03-28T06:52:01.722Z,29.34
2017-03-28T06:53:01.768Z,29.44
2017-03-28T06:54:02.120Z,29.77
2017-03-28T06:55:01.865Z,29.99
2017-03-28T06:56:01.917Z,30.16
2017-03-28T06:57:01.954Z,30.34
2017-03-28T06:58:02.309Z,30.52
2017-03-28T06:59:02.355Z,30.67
2017-03-28T07:00:02.401Z,30.87
2017-03-28T07:01:02.181Z,31.01
2017-03-28T07:02:02.191Z,31.18
2017-03-28T07:03:02.234Z,31.24
2017-03-28T07:04:02.588Z,31.35
2017-03-28T07:05:02.339Z,31.31
2017-03-28T07:06:02.681Z,31.45
2017-03-28T07:07:02.730Z,31.49
2017-03-28T07:08:02.474Z,31.64
2017-03-28T07:09:02.525Z,31.67
2017-03-28T07:10:02.571Z,31.77
2017-03-28T07:11:02.619Z,31.96
2017-03-28T07:12:02.668Z,32.02
2017-03-28T07:13:03.022Z,32.13
2017-03-28T07:14:02.766Z,32.2
2017-03-28T07:15:02.819Z,32.25
2017-03-28T07:16:03.163Z,32.22
2017-03-28T07:17:02.914Z,32.1
2017-03-28T07:18:03.268Z,32.03
2017-03-28T07:19:03.010Z,31.96
2017-03-28T07:20:03.341Z,31.82
2017-03-28T07:21:03.102Z,31.84
2017-03-28T07:22:03.151Z,31.75
2017-03-28T07:23:03.211Z,31.64
2017-03-28T07:24:03.582Z,31.6
2017-03-28T07:25:03.458Z,31.68
2017-03-28T07:26:03.650Z,31.68
2017-03-28T07:27:03.700Z,31.85
2017-03-28T07:28:03.444Z,32.02
2017-03-28T07:29:03.799Z,32.15
2017-03-28T07:30:03.596Z,32.25
2017-03-28T07:31:03.899Z,32.55
2017-03-28T07:32:03.716Z,32.73
2017-03-28T07:33:03.688Z,32.73
2017-03-28T07:34:03.744Z,32.85
2017-03-28T07:35:03.786Z,32.8
2017-03-28T07:36:04.138Z,32.79
2017-03-28T07:37:04.188Z,32.7
2017-03-28T07:38:04.240Z,32.79
2017-03-28T07:39:03.987Z,32.92
2017-03-28T07:40:04.341Z,33.1
2017-03-28T07:41:04.402Z,33.26
2017-03-28T07:42:04.130Z,33.31
2017-03-28T07:43:04.487Z,33.29
2017-03-28T07:44:04.236Z,33.19
2017-03-28T07:45:04.583Z,33.15
2017-03-28T07:46:04.357Z,33.06
2017-03-28T07:47:04.387Z,32.89
2017-03-28T07:48:04.771Z,32.74
2017-03-28T07:49:04.505Z,32.52
2017-03-28T07:50:04.536Z,32.51
2017-03-28T07:51:04.586Z,32.54
2017-03-28T07:52:04.715Z,32.54
2017-03-28T07:53:08.203Z,32.67
2017-03-28T07:54:05.041Z,33.03
2017-03-28T07:55:04.786Z,33.23
2017-03-28T07:56:05.140Z,33.27
2017-03-28T07:57:04.879Z,33.15
2017-03-28T07:58:05.004Z,33.2
2017-03-28T07:59:04.994Z,33.27
2017-03-28T08:00:05.033Z,33.29
2017-03-28T08:01:05.081Z,33.26
2017-03-28T08:02:05.131Z,33.34
2017-03-28T08:03:05.181Z,33.48
2017-03-28T08:04:05.537Z,33.65
2017-03-28T08:05:05.434Z,33.73
2017-03-28T08:06:05.418Z,33.97
2017-03-28T08:07:05.385Z,34.08
2017-03-28T08:08:05.436Z,34.09
2017-03-28T08:09:05.481Z,34.19
2017-03-28T08:10:05.535Z,34.51
2017-03-28T08:11:05.585Z,34.69
2017-03-28T08:12:05.637Z,34.76
2017-03-28T08:13:05.685Z,34.77
2017-03-28T08:14:06.044Z,34.73
2017-03-28T08:15:05.790Z,34.66
2017-03-28T08:16:05.844Z,34.5
2017-03-28T08:17:05.890Z,34.17
2017-03-28T08:18:06.247Z,33.92
2017-03-28T08:19:06.298Z,34.08
2017-03-28T08:20:06.042Z,34
2017-03-28T08:21:06.095Z,34
2017-03-28T08:22:06.150Z,34
2017-03-28T08:23:06.199Z,33.98
2017-03-28T08:24:06.252Z,33.83
2017-03-28T08:25:06.303Z,33.94
2017-03-28T08:26:06.361Z,34
2017-03-28T08:27:06.410Z,34.17
2017-03-28T08:28:06.464Z,34.36
2017-03-28T08:29:06.511Z,34.56
2017-03-28T08:30:06.722Z,34.79
2017-03-28T08:31:06.919Z,35.02
2017-03-28T08:32:07.273Z,35.18
2017-03-28T08:33:06.715Z,35.45
2017-03-28T08:34:07.070Z,35.52
2017-03-28T08:35:08.020Z,35.79
2017-03-28T08:36:06.877Z,36.01
2017-03-28T08:37:07.237Z,36.2
2017-03-28T08:38:06.983Z,36.27
2017-03-28T08:39:07.037Z,36.39
2017-03-28T08:40:07.090Z,36.51
2017-03-28T08:41:07.139Z,36.56
2017-03-28T08:42:07.202Z,36.52
2017-03-28T08:43:07.550Z,36.64
2017-03-28T08:44:07.306Z,36.65
2017-03-28T08:45:07.351Z,36.61
2017-03-28T08:46:07.711Z,36.65
2017-03-28T08:47:07.770Z,36.49
2017-03-28T08:48:07.816Z,36.33
2017-03-28T08:49:08.174Z,36.35
2017-03-28T08:50:07.626Z,36.31
2017-03-28T08:51:07.669Z,36.39
2017-03-28T08:52:07.724Z,36.46
2017-03-28T08:53:07.781Z,36.65
2017-03-28T08:54:08.135Z,36.68
2017-03-28T08:55:07.891Z,36.8
2017-03-28T08:56:08.248Z,36.91
2017-03-28T08:57:07.993Z,36.91
2017-03-28T08:58:08.353Z,36.94
2017-03-28T08:59:08.410Z,37.05
2017-03-28T09:00:08.161Z,37.12
2017-03-28T09:01:08.515Z,37.1
2017-03-28T09:02:08.941Z,37.21
2017-03-28T09:03:08.631Z,37.19
2017-03-28T09:04:08.682Z,37.04
2017-03-28T09:05:08.734Z,37.12
2017-03-28T09:06:08.487Z,37.04
2017-03-28T09:07:08.546Z,37.13
2017-03-28T09:08:08.900Z,37.1
2017-03-28T09:09:09.269Z,37.07
2017-03-28T09:10:08.706Z,36.98
2017-03-28T09:11:08.760Z,36.98
2017-03-28T09:12:08.821Z,36.77
2017-03-28T09:13:08.870Z,36.77
2017-03-28T09:14:08.934Z,36.77
2017-03-28T09:15:08.992Z,36.82
2017-03-28T09:16:09.043Z,36.8
2017-03-28T09:17:09.104Z,36.73
2017-03-28T09:18:09.159Z,36.75
2017-03-28T09:19:09.518Z,36.73
2017-03-28T09:20:09.267Z,36.61
2017-03-28T09:21:09.318Z,36.33
2017-03-28T09:22:09.381Z,36.29
2017-03-28T09:23:09.742Z,36.08
2017-03-28T09:24:09.796Z,35.85
2017-03-28T09:25:09.851Z,35.73
2017-03-28T09:26:09.904Z,35.7
2017-03-28T09:27:09.663Z,35.58
2017-03-28T09:28:09.716Z,35.47
2017-03-28T09:29:10.076Z,35.51
2017-03-28T09:30:09.831Z,35.48
2017-03-28T09:31:09.889Z,35.48
2017-03-28T09:32:09.961Z,35.47
2017-03-28T09:33:10.008Z,35.42
2017-03-28T09:34:10.066Z,35.37
2017-03-28T09:35:10.123Z,35.4
2017-03-28T09:36:10.171Z,35.14
2017-03-28T09:37:10.226Z,35.03
2017-03-28T09:38:10.594Z,34.92
2017-03-28T09:39:10.646Z,34.83
2017-03-28T09:40:10.403Z,34.72
2017-03-28T09:41:10.461Z,34.64
2017-03-28T09:42:10.520Z,34.57
2017-03-28T09:43:10.571Z,34.57
2017-03-28T09:44:10.934Z,34.64
2017-03-28T09:45:10.986Z,34.64
2017-03-28T09:46:10.744Z,34.54
2017-03-28T09:47:10.801Z,34.69
2017-03-28T09:48:11.164Z,34.6
2017-03-28T09:49:10.914Z,34.64
2017-03-28T09:50:11.277Z,34.51
2017-03-28T09:51:11.037Z,34.63
2017-03-28T09:52:11.093Z,34.53
2017-03-28T09:53:11.451Z,34.48
2017-03-28T09:54:11.213Z,34.48
2017-03-28T09:55:11.263Z,34.5
2017-03-28T09:56:11.318Z,34.42
2017-03-28T09:57:11.379Z,34.29
2017-03-28T09:58:11.745Z,34.16
2017-03-28T09:59:11.722Z,34.09
2017-03-28T10:00:11.555Z,34.01
2017-03-28T10:01:11.834Z,34
2017-03-28T10:02:11.871Z,33.86
2017-03-28T10:03:11.740Z,33.76
2017-03-28T10:04:11.791Z,33.7
2017-03-28T10:05:11.861Z,33.55
2017-03-28T10:06:12.152Z,33.53
2017-03-28T10:07:11.966Z,33.36
2017-03-28T10:08:12.333Z,33.22
2017-03-28T10:09:12.129Z,33.19
2017-03-28T10:10:12.219Z,33.07
2017-03-28T10:11:12.210Z,33.08
2017-03-28T10:12:12.585Z,33.06
2017-03-28T10:13:12.386Z,32.92
2017-03-28T10:14:12.444Z,32.88
2017-03-28T10:15:12.741Z,32.77
2017-03-28T10:16:12.580Z,32.66
2017-03-28T10:17:12.558Z,32.76
2017-03-28T10:18:12.759Z,32.62
2017-03-28T10:19:12.705Z,32.62
2017-03-28T10:20:13.067Z,32.51
2017-03-28T10:21:12.831Z,32.67
2017-03-28T10:22:12.863Z,32.57
2017-03-28T10:23:12.915Z,32.42
2017-03-28T10:24:13.201Z,32.36
2017-03-28T10:25:13.133Z,32.2
2017-03-28T10:26:13.247Z,32.17
2017-03-28T10:27:13.481Z,32.02
2017-03-28T10:28:13.272Z,32.02
2017-03-28T10:29:13.273Z,31.99
2017-03-28T10:30:13.660Z,31.75
2017-03-28T10:31:13.613Z,31.62
2017-03-28T10:32:13.492Z,31.55
2017-03-28T10:33:14.097Z,31.48
2017-03-28T10:34:13.865Z,31.46
2017-03-28T10:35:13.923Z,31.36
2017-03-28T10:36:14.022Z,31.31
2017-03-28T10:37:13.749Z,31.35
2017-03-28T10:38:14.240Z,31.28
2017-03-28T10:39:13.915Z,31.38
2017-03-28T10:40:13.931Z,31.2
2017-03-28T10:41:13.986Z,31.17
2017-03-28T10:42:14.039Z,31.21
2017-03-28T10:43:14.400Z,31.08
2017-03-28T10:44:14.495Z,31.06
2017-03-28T10:45:14.281Z,31.02
2017-03-28T10:46:14.274Z,30.94
2017-03-28T10:47:14.490Z,31.06
2017-03-28T10:48:14.417Z,30.93
2017-03-28T10:49:14.457Z,30.87
2017-03-28T10:50:14.538Z,30.86
2017-03-28T10:51:14.579Z,30.75
2017-03-28T10:52:15.076Z,30.65
2017-03-28T10:53:14.689Z,30.68
2017-03-28T10:54:15.059Z,30.69
2017-03-28T10:55:15.166Z,30.54
2017-03-28T10:56:15.211Z,30.4
2017-03-28T10:57:14.929Z,30.31
2017-03-28T10:58:15.298Z,30.16
2017-03-28T10:59:15.356Z,30.11
2017-03-28T11:00:15.116Z,30
2017-03-28T11:01:15.171Z,29.96
2017-03-28T11:02:15.525Z,29.92
2017-03-28T11:03:15.721Z,29.82
2017-03-28T11:04:15.390Z,29.84
2017-03-28T11:05:15.447Z,29.77
2017-03-28T11:06:15.458Z,29.81
2017-03-28T11:07:15.821Z,29.7
2017-03-28T11:08:16.178Z,29.59
2017-03-28T11:09:15.633Z,29.52
2017-03-28T11:10:15.700Z,29.41
2017-03-28T11:11:15.747Z,29.28
2017-03-28T11:12:15.803Z,29.16
2017-03-28T11:13:15.865Z,29.01
2017-03-28T11:14:16.225Z,28.93
2017-03-28T11:15:15.979Z,28.88
2017-03-28T11:16:16.333Z,28.78
2017-03-28T11:17:16.410Z,28.69
2017-03-28T11:18:16.150Z,28.65
2017-03-28T11:19:16.510Z,28.59
2017-03-28T11:20:16.562Z,28.46
2017-03-28T11:21:16.616Z,28.35
2017-03-28T11:22:16.675Z,28.33
2017-03-28T11:23:16.431Z,28.21
2017-03-28T11:24:16.488Z,28.17
2017-03-28T11:25:16.540Z,28.07
2017-03-28T11:26:16.592Z,28.03
2017-03-28T11:27:16.637Z,27.98
2017-03-28T11:28:17.004Z,27.8
2017-03-28T11:29:17.071Z,27.74
2017-03-28T11:30:16.811Z,27.67
2017-03-28T11:31:17.160Z,27.54
2017-03-28T11:32:16.913Z,27.48
2017-03-28T11:33:17.583Z,27.41
2017-03-28T11:34:17.320Z,27.26
2017-03-28T11:35:17.376Z,27.2
2017-03-28T11:36:17.129Z,27.24
2017-03-28T11:37:17.479Z,27.23
2017-03-28T11:38:17.537Z,27.1
2017-03-28T11:39:17.585Z,26.91
2017-03-28T11:40:17.329Z,26.86
2017-03-28T11:41:17.384Z,26.79
2017-03-28T11:42:17.435Z,26.76
2017-03-28T11:43:17.786Z,26.76
2017-03-28T11:44:17.533Z,26.79
2017-03-28T11:45:17.603Z,26.64
2017-03-28T11:46:17.632Z,26.58
2017-03-28T11:47:17.687Z,26.59
2017-03-28T11:48:17.740Z,26.52
2017-03-28T11:49:17.787Z,26.4
2017-03-28T11:50:17.834Z,26.31
2017-03-28T11:51:17.882Z,26.22
2017-03-28T11:52:17.931Z,26.17
2017-03-28T11:53:18.289Z,25.98
2017-03-28T11:54:18.030Z,26.06
2017-03-28T11:55:18.075Z,25.93
2017-03-28T11:56:18.427Z,25.93
2017-03-28T11:57:18.186Z,25.87
2017-03-28T11:58:18.221Z,25.82
2017-03-28T11:59:18.278Z,25.77
2017-03-28T12:00:18.315Z,25.56
2017-03-28T12:01:18.369Z,25.67
2017-03-28T12:02:18.412Z,25.57
2017-03-28T12:03:18.462Z,25.56
2017-03-28T12:04:18.810Z,25.56
2017-03-28T12:05:18.860Z,25.49
2017-03-28T12:06:18.908Z,25.47
2017-03-28T12:07:18.658Z,25.49
2017-03-28T12:08:18.996Z,25.44
2017-03-28T12:09:18.742Z,25.46
2017-03-28T12:10:18.791Z,25.37
2017-03-28T12:11:18.833Z,25.34
2017-03-28T12:12:18.882Z,25.27
2017-03-28T12:13:19.273Z,25.12
2017-03-28T12:14:18.983Z,25.2
2017-03-28T12:15:19.422Z,25.19
2017-03-28T12:16:19.072Z,25.17
2017-03-28T12:17:19.115Z,25.09
2017-03-28T12:18:19.160Z,25.09
2017-03-28T12:19:19.208Z,25.05
2017-03-28T12:20:19.562Z,25.09
2017-03-28T12:21:19.300Z,24.92
2017-03-28T12:22:19.645Z,24.83
2017-03-28T12:23:19.702Z,24.88
2017-03-28T12:24:19.747Z,24.82
2017-03-28T12:25:19.491Z,24.76
2017-03-28T12:26:19.838Z,24.75
2017-03-28T12:27:19.574Z,24.67
2017-03-28T12:28:19.625Z,24.56
2017-03-28T12:29:19.668Z,24.56
2017-03-28T12:30:19.708Z,24.56
2017-03-28T12:31:19.823Z,24.5
2017-03-28T12:32:19.802Z,24.41
2017-03-28T12:33:19.850Z,24.41
2017-03-28T12:34:19.891Z,24.39
2017-03-28T12:35:19.954Z,24.38
2017-03-28T12:36:20.288Z,24.31
2017-03-28T12:37:20.031Z,24.34
2017-03-28T12:38:20.073Z,24.19
2017-03-28T12:39:20.121Z,24.13
2017-03-28T12:40:20.163Z,24.2
2017-03-28T12:41:20.212Z,24.16
2017-03-28T12:42:20.557Z,24.13
2017-03-28T12:43:20.298Z,24.13
2017-03-28T12:44:20.655Z,24.02
2017-03-28T12:45:20.400Z,24.02
2017-03-28T12:46:20.428Z,24.02
2017-03-28T12:47:20.476Z,23.98
2017-03-28T12:48:20.525Z,23.98
2017-03-28T12:49:20.573Z,23.94
2017-03-28T12:50:20.608Z,23.92
2017-03-28T12:51:20.666Z,23.89
2017-03-28T12:52:20.695Z,23.82
2017-03-28T12:53:20.747Z,23.79
2017-03-28T12:54:20.785Z,23.72
2017-03-28T12:55:20.835Z,23.71
2017-03-28T12:56:20.876Z,23.7
2017-03-28T12:57:20.930Z,23.61
2017-03-28T12:58:20.966Z,23.5
2017-03-28T12:59:21.017Z,23.5
2017-03-28T13:00:21.104Z,23.47
2017-03-28T13:01:21.101Z,23.47
2017-03-28T13:02:21.146Z,23.5
2017-03-28T13:03:21.488Z,23.46
2017-03-28T13:04:21.535Z,23.46
2017-03-28T13:05:21.276Z,23.46
2017-03-28T13:06:21.319Z,23.45
2017-03-28T13:07:21.370Z,23.42
2017-03-28T13:08:21.407Z,23.45